M I D A S
Marine Information and Data Acquisition System
Tripno 1229 of the Zeeleeuw from 2007-03-12 08:05:23 to 2007-03-12 13:45:51
Back to CruiseResearch ActivitiesStationsMapUnderway DataData graphs

EquipmentUnitsComments
TimeDGPSUTC
LatitudeDGPSDM.mWGS84
LongitudeDGPSDM.mWGS84
SpeedMeteo Stationm/sRelative wind speed
DirectionMeteo StationdegRelative wind direction
TemperatureMeteo Stationdeg CelciusAir temperature
PressureMeteo StationPaAtmospheric pressure
HumidityMeteo Station%Relative humidity
Missing or incorrect values are displayed as -999
Metereological data collected by the RV Zeeleeuw from 2007-03-12 07:47:02 to 2007-03-12 13:55:59
                                                                                    Next 1000 lines
Time Latitude Longitude Speed Direction Temperature Pressure Humidity
2007-03-12 07:47:11 51°13.597 2°56.094 1.7 352 6.4 102590 89
2007-03-12 07:47:17 51°13.597 2°56.094 2.2 347 6.4 102590 89
2007-03-12 07:47:21 51°13.597 2°56.094 2.5 360 6.5 102590 89
2007-03-12 07:47:26 51°13.597 2°56.094 3.1 4 6.5 102590 89
2007-03-12 07:47:31 51°13.597 2°56.094 3.3 359 6.4 102590 89
2007-03-12 07:47:36 51°13.597 2°56.094 2.6 280 6.4 102590 89
2007-03-12 07:47:41 51°13.597 2°56.094 1.7 350 6.5 102590 89
2007-03-12 07:47:46 51°13.597 2°56.094 1.9 351 6.5 102590 89
2007-03-12 07:47:51 51°13.597 2°56.095 2.2 358 6.5 102590 89
2007-03-12 07:47:56 51°13.597 2°56.095 1.9 359 6.5 102590 89
2007-03-12 07:48:01 51°13.597 2°56.095 1.8 347 6.5 102590 89
2007-03-12 07:48:06 51°13.597 2°56.096 1.4 287 6.5 102590 89
2007-03-12 07:48:11 51°13.597 2°56.096 2.7 349 6.5 102590 89
2007-03-12 07:48:16 51°13.597 2°56.096 2.8 351 6.5 102590 89
2007-03-12 07:48:21 51°13.597 2°56.096 3 -999 6.5 102590 89
2007-03-12 07:48:26 51°13.597 2°56.096 2.6 9 6.5 102590 89
2007-03-12 07:48:32 51°13.597 2°56.096 2.4 8 6.5 102590 89
2007-03-12 07:48:37 51°13.597 2°56.096 3.6 355 6.5 102590 89
2007-03-12 07:48:42 51°13.597 2°56.096 3.5 7 6.5 102590 89
2007-03-12 07:48:47 51°13.597 2°56.096 2.6 1 6.5 102590 89
2007-03-12 07:48:52 51°13.597 2°56.096 3.3 356 6.5 102590 89
2007-03-12 07:48:57 51°13.597 2°56.095 3.5 353 6.5 102590 89
2007-03-12 07:49:02 51°13.597 2°56.095 3.7 356 6.5 102590 89
2007-03-12 07:49:07 51°13.597 2°56.095 5.6 358 6.5 102590 89
2007-03-12 07:49:12 51°13.597 2°56.095 4.1 357 6.5 102590 89
2007-03-12 07:49:17 51°13.597 2°56.095 3.6 -999 6.5 102590 89
2007-03-12 07:49:22 51°13.597 2°56.095 2.5 13 6.5 102590 89
2007-03-12 07:49:27 51°13.597 2°56.095 2.2 354 6.5 102590 89
2007-03-12 07:49:31 51°13.597 2°56.095 2.9 346 6.5 102590 89
2007-03-12 07:49:37 51°13.597 2°56.095 2.3 8 6.5 102590 89
2007-03-12 07:49:42 51°13.597 2°56.094 2 350 6.5 102590 89
2007-03-12 07:49:46 51°13.597 2°56.093 3 15 6.5 102590 89
2007-03-12 07:49:51 51°13.598 2°56.091 3.1 355 6.5 102590 89
2007-03-12 07:49:56 51°13.598 2°56.09 1.5 7 6.5 102590 89
2007-03-12 07:50:01 51°13.599 2°56.088 2.6 6 6.5 102590 89
2007-03-12 07:50:06 51°13.6 2°56.085 2.6 358 6.5 102590 89
2007-03-12 07:50:11 51°13.601 2°56.082 1.5 18 6.6 102590 89
2007-03-12 07:50:16 51°13.602 2°56.078 1.4 356 6.6 102590 89
2007-03-12 07:50:22 51°13.603 2°56.073 1.4 9 6.6 102600 89
2007-03-12 07:50:27 51°13.604 2°56.069 1.2 22 6.6 102600 89
2007-03-12 07:50:32 51°13.605 2°56.063 1.4 35 6.6 102590 89
2007-03-12 07:50:37 51°13.607 2°56.057 2 17 6.6 102590 89
2007-03-12 07:50:42 51°13.608 2°56.051 2.7 25 6.6 102590 89
2007-03-12 07:50:47 51°13.61 2°56.044 2.9 32 6.6 102590 89
2007-03-12 07:50:52 51°13.612 2°56.037 3 29 6.6 102590 89
2007-03-12 07:50:57 51°13.613 2°56.031 3 14 6.6 102590 89
2007-03-12 07:51:02 51°13.615 2°56.024 2.8 38 6.6 102590 89
2007-03-12 07:51:07 51°13.617 2°56.016 3 41 6.6 102590 89
2007-03-12 07:51:12 51°13.619 2°56.009 3.1 24 6.6 102590 89
2007-03-12 07:51:17 51°13.621 2°56.002 3.8 18 6.6 102590 89
2007-03-12 07:51:22 51°13.622 2°55.995 3.2 20 6.6 102590 88
2007-03-12 07:51:27 51°13.624 2°55.988 3 31 6.6 102590 88
2007-03-12 07:51:32 51°13.626 2°55.98 3.4 10 6.6 102590 88
2007-03-12 07:51:37 51°13.628 2°55.973 2.9 18 6.6 102590 88
2007-03-12 07:51:42 51°13.63 2°55.965 2 27 6.6 102590 88
2007-03-12 07:51:47 51°13.632 2°55.958 2.4 20 6.6 102590 88
2007-03-12 07:51:52 51°13.634 2°55.951 3.8 14 6.6 102590 88
2007-03-12 07:51:58 51°13.636 2°55.942 3.1 8 6.6 102590 88
2007-03-12 07:52:02 51°13.638 2°55.936 2.9 12 6.6 102590 88
2007-03-12 07:52:07 51°13.64 2°55.929 2.3 14 6.6 102590 88
2007-03-12 07:52:12 51°13.643 2°55.922 2.1 12 6.6 102590 88
2007-03-12 07:52:17 51°13.645 2°55.914 2.3 15 6.6 102590 88
2007-03-12 07:52:22 51°13.647 2°55.907 1.7 22 6.6 102590 88
2007-03-12 07:52:27 51°13.649 2°55.9 1.9 20 6.6 102590 88
2007-03-12 07:52:32 51°13.651 2°55.893 1.9 3 6.6 102590 88
2007-03-12 07:52:37 51°13.653 2°55.886 1.8 25 6.6 102590 88
2007-03-12 07:52:42 51°13.655 2°55.879 2.1 28 6.6 102590 88
2007-03-12 07:52:47 51°13.657 2°55.872 2.4 20 6.6 102590 88
2007-03-12 07:52:52 51°13.659 2°55.866 2.1 27 6.7 102590 88
2007-03-12 07:52:57 51°13.661 2°55.859 2.2 24 6.7 102590 88
2007-03-12 07:53:02 51°13.662 2°55.852 1.9 36 6.7 102590 88
2007-03-12 07:53:07 51°13.664 2°55.845 2.1 76 6.7 102590 88
2007-03-12 07:53:12 51°13.666 2°55.838 1.9 21 6.7 102590 88
2007-03-12 07:53:17 51°13.668 2°55.831 2.1 41 6.7 102590 88
2007-03-12 07:53:22 51°13.669 2°55.824 1.6 25 6.7 102590 88
2007-03-12 07:53:27 51°13.67 2°55.818 1.5 23 6.7 102590 88
2007-03-12 07:53:32 51°13.671 2°55.811 1.7 26 6.7 102590 88
2007-03-12 07:53:37 51°13.672 2°55.804 1.9 42 6.7 102590 88
2007-03-12 07:53:42 51°13.673 2°55.797 3.9 17 6.7 102590 88
2007-03-12 07:53:47 51°13.673 2°55.79 3.8 16 6.7 102590 88
2007-03-12 07:53:52 51°13.674 2°55.784 3 23 6.7 102590 88
2007-03-12 07:53:57 51°13.674 2°55.778 2.9 26 6.7 102590 88
2007-03-12 07:54:02 51°13.674 2°55.772 2.9 34 6.7 102590 88
2007-03-12 07:54:07 51°13.675 2°55.766 3.8 79 6.7 102590 88
2007-03-12 07:54:11 51°13.675 2°55.761 2.8 36 6.7 102590 88
2007-03-12 07:54:16 51°13.675 2°55.757 2.9 29 6.7 102590 88
2007-03-12 07:54:21 51°13.675 2°55.754 2.2 25 6.7 102590 88
2007-03-12 07:54:26 51°13.676 2°55.752 2.4 23 6.7 102590 88
2007-03-12 07:54:31 51°13.676 2°55.751 2.7 20 6.8 102590 88
2007-03-12 07:54:36 51°13.676 2°55.751 2.8 30 6.8 102590 88
2007-03-12 07:54:41 51°13.677 2°55.751 2.6 19 6.8 102590 88
2007-03-12 07:54:46 51°13.678 2°55.753 2.6 21 6.8 102590 88
2007-03-12 07:54:51 51°13.679 2°55.755 3 27 6.8 102590 88
2007-03-12 07:54:56 51°13.68 2°55.757 3 30 6.8 102590 88
2007-03-12 07:55:00 51°13.682 2°55.759 2.6 37 6.8 102590 88
2007-03-12 07:55:06 51°13.685 2°55.762 3.4 20 6.8 102590 88
2007-03-12 07:55:10 51°13.687 2°55.764 3.7 37 6.8 102590 88
2007-03-12 07:55:15 51°13.69 2°55.766 2.9 36 6.8 102590 88
2007-03-12 07:55:20 51°13.693 2°55.767 2.9 25 6.8 102590 88
2007-03-12 07:55:25 51°13.696 2°55.769 3.2 50 6.8 102590 88
2007-03-12 07:55:30 51°13.699 2°55.769 3.4 43 6.8 102580 88
2007-03-12 07:55:32 51°13.701 2°55.769 3.2 49 6.8 102580 88
2007-03-12 07:55:39 51°13.704 2°55.769 3.4 19 6.8 102590 88
2007-03-12 07:55:45 51°13.707 2°55.768 3.1 50 6.8 102590 88
2007-03-12 07:55:50 51°13.708 2°55.767 2.9 19 6.8 102590 87
2007-03-12 07:55:55 51°13.709 2°55.765 2.5 52 6.8 102590 87
2007-03-12 07:56:00 51°13.709 2°55.764 3.8 20 6.8 102590 87
2007-03-12 07:56:05 51°13.709 2°55.763 4.3 50 6.8 102590 87
2007-03-12 07:56:10 51°13.709 2°55.763 3.2 24 6.8 102590 87
2007-03-12 07:56:15 51°13.708 2°55.762 3.8 57 6.8 102590 87
2007-03-12 07:56:20 51°13.707 2°55.762 3.1 20 6.9 102590 87
2007-03-12 07:56:25 51°13.707 2°55.761 2.6 55 6.9 102590 87
2007-03-12 07:56:30 51°13.707 2°55.76 2.8 20 6.8 102580 87
2007-03-12 07:56:35 51°13.707 2°55.759 2.5 54 6.8 102580 87
2007-03-12 07:56:40 51°13.708 2°55.757 3 28 6.8 102590 87
2007-03-12 07:56:45 51°13.709 2°55.755 2.9 58 6.8 102590 87
2007-03-12 07:56:50 51°13.711 2°55.753 2.9 19 6.8 102590 87
2007-03-12 07:56:55 51°13.714 2°55.75 1.6 53 6.8 102590 87
2007-03-12 07:57:00 51°13.718 2°55.746 1.7 262 6.8 102590 87
2007-03-12 07:57:05 51°13.722 2°55.742 1.9 306 6.8 102590 87
2007-03-12 07:57:09 51°13.725 2°55.739 1.4 256 6.8 102590 87
2007-03-12 07:57:14 51°13.73 2°55.734 1.7 306 6.8 102590 87
2007-03-12 07:57:19 51°13.735 2°55.729 1.1 254 6.9 102590 87
2007-03-12 07:57:24 51°13.74 2°55.724 1.2 306 6.9 102590 87
2007-03-12 07:57:29 51°13.746 2°55.718 1.9 254 6.9 102580 87
2007-03-12 07:57:34 51°13.752 2°55.712 1.5 306 6.9 102580 87
2007-03-12 07:57:39 51°13.759 2°55.706 2.6 255 6.9 102580 87
2007-03-12 07:57:44 51°13.765 2°55.7 3.2 310 6.9 102580 87
2007-03-12 07:57:49 51°13.772 2°55.693 2.6 24 6.9 102590 87
2007-03-12 07:57:54 51°13.779 2°55.686 1.9 309 6.9 102590 87
2007-03-12 07:57:59 51°13.786 2°55.68 1.5 26 6.9 102590 87
2007-03-12 07:58:03 51°13.792 2°55.674 2 306 6.9 102590 87
2007-03-12 07:58:08 51°13.8 2°55.667 1.3 255 6.9 102590 87
2007-03-12 07:58:14 51°13.809 2°55.659 1.5 309 6.9 102590 87
2007-03-12 07:58:19 51°13.816 2°55.652 1.1 261 6.9 102580 87
2007-03-12 07:58:24 51°13.824 2°55.645 0.9 304 6.9 102580 87
2007-03-12 07:58:28 51°13.831 2°55.639 1.2 268 7 102590 87
2007-03-12 07:58:34 51°13.841 2°55.631 1.5 57 7 102590 87
2007-03-12 07:58:39 51°13.849 2°55.624 0.6 32 7 102580 87
2007-03-12 07:58:44 51°13.858 2°55.617 0.7 326 7 102580 87
2007-03-12 07:58:48 51°13.865 2°55.612 1.1 328 7 102580 87
2007-03-12 07:58:54 51°13.875 2°55.604 2.2 324 7 102580 87
2007-03-12 07:58:59 51°13.884 2°55.597 1.6 22 7 102580 87
2007-03-12 07:59:04 51°13.893 2°55.59 1.9 308 7 102580 87
2007-03-12 07:59:09 51°13.903 2°55.583 1.6 319 7 102580 87
2007-03-12 07:59:14 51°13.912 2°55.576 1.7 304 7 102580 87
2007-03-12 07:59:19 51°13.921 2°55.57 1.8 20 7.1 102580 87
2007-03-12 07:59:24 51°13.93 2°55.563 1.8 307 7.1 102580 87
2007-03-12 07:59:28 51°13.938 2°55.558 1.7 329 7.1 102580 87
2007-03-12 07:59:34 51°13.949 2°55.549 1.6 308 7.1 102580 87
2007-03-12 07:59:39 51°13.958 2°55.542 1.4 21 7.1 102580 87
2007-03-12 07:59:44 51°13.967 2°55.536 1.5 304 7.1 102580 87
2007-03-12 07:59:49 51°13.976 2°55.529 1 21 7.1 102580 87
2007-03-12 07:59:54 51°13.986 2°55.522 0.8 308 7.1 102580 87
2007-03-12 07:59:59 51°13.995 2°55.515 0.9 332 7.1 102580 87
2007-03-12 08:00:04 51°14.004 2°55.509 0.6 329 7.1 102580 87
2007-03-12 08:00:09 51°14.014 2°55.502 0.7 349 7.1 102580 87
2007-03-12 08:00:14 51°14.023 2°55.496 1 324 7.1 102580 87
2007-03-12 08:00:19 51°14.032 2°55.489 0.7 327 7.2 102580 87
2007-03-12 08:00:23 51°14.04 2°55.484 0.8 304 7.2 102580 87
2007-03-12 08:00:28 51°14.049 2°55.477 0.6 317 7.2 102580 87
2007-03-12 08:00:34 51°14.06 2°55.469 0.6 306 7.2 102580 87
2007-03-12 08:00:39 51°14.07 2°55.462 0.5 331 7.2 102580 86
2007-03-12 08:00:44 51°14.079 2°55.455 0.5 311 7.2 102580 86
2007-03-12 08:00:48 51°14.086 2°55.449 0.6 23 7.2 102580 86
2007-03-12 08:00:54 51°14.097 2°55.44 0.3 56 7.2 102580 86
2007-03-12 08:00:59 51°14.106 2°55.434 0.5 24 7.2 102580 86
2007-03-12 08:01:04 51°14.115 2°55.427 0.9 311 7.2 102580 86
2007-03-12 08:01:08 51°14.123 2°55.421 0.7 266 7.2 102580 86
2007-03-12 08:01:14 51°14.133 2°55.412 0.7 306 7.2 102580 86
2007-03-12 08:01:19 51°14.142 2°55.404 1 250 7.2 102580 86
2007-03-12 08:01:24 51°14.151 2°55.396 0.8 309 7.2 102580 86
2007-03-12 08:01:29 51°14.16 2°55.388 0.7 248 7.3 102580 86
2007-03-12 08:01:34 51°14.169 2°55.38 0.6 310 7.3 102580 86
2007-03-12 08:01:39 51°14.178 2°55.371 1 20 7.3 102580 87
2007-03-12 08:01:44 51°14.187 2°55.363 1.1 302 7.3 102580 87
2007-03-12 08:01:48 51°14.194 2°55.355 1.5 24 7.3 102580 87
2007-03-12 08:01:54 51°14.205 2°55.343 1.8 309 7.3 102580 87
2007-03-12 08:01:59 51°14.214 2°55.332 2.1 22 7.4 102580 87
2007-03-12 08:02:03 51°14.221 2°55.323 2.6 310 7.4 102580 87
2007-03-12 08:02:09 51°14.232 2°55.309 2.4 319 7.4 102580 86
2007-03-12 08:02:14 51°14.241 2°55.296 2.3 303 7.4 102580 86
2007-03-12 08:02:19 51°14.25 2°55.283 2.5 18 7.4 102580 86
2007-03-12 08:02:24 51°14.258 2°55.269 2.3 304 7.4 102580 86
2007-03-12 08:02:29 51°14.267 2°55.254 3.3 24 7.4 102580 86
2007-03-12 08:02:34 51°14.275 2°55.239 3 304 7.4 102580 86
2007-03-12 08:02:39 51°14.284 2°55.224 2.1 20 7.4 102570 86
2007-03-12 08:02:43 51°14.291 2°55.211 2 310 7.4 102570 86
2007-03-12 08:02:48 51°14.3 2°55.195 2.8 250 7.4 102580 86
2007-03-12 08:02:54 51°14.31 2°55.175 3.7 303 7.4 102580 86
2007-03-12 08:02:59 51°14.318 2°55.159 4 21 7.5 102570 86
2007-03-12 08:03:04 51°14.327 2°55.141 4 308 7.5 102570 86
2007-03-12 08:03:09 51°14.336 2°55.123 4.2 257 7.5 102570 86
2007-03-12 08:03:14 51°14.345 2°55.105 4.5 309 7.5 102570 86
2007-03-12 08:03:19 51°14.354 2°55.087 3.3 24 7.5 102570 86
2007-03-12 08:03:23 51°14.362 2°55.072 4.1 310 7.5 102570 86
2007-03-12 08:03:29 51°14.373 2°55.049 4 25 7.5 102580 85
2007-03-12 08:03:34 51°14.381 2°55.028 4.2 310 7.5 102580 85
2007-03-12 08:03:39 51°14.389 2°55.007 4.1 19 7.5 102580 85
2007-03-12 08:03:44 51°14.397 2°54.985 6.2 306 7.5 102580 85
2007-03-12 08:03:49 51°14.404 2°54.962 5.4 26 7.5 102570 85
2007-03-12 08:03:54 51°14.411 2°54.939 6.2 310 7.5 102570 85
2007-03-12 08:03:59 51°14.418 2°54.915 6.4 21 7.6 102570 85
2007-03-12 08:04:04 51°14.425 2°54.89 5.5 303 7.6 102570 85
2007-03-12 08:04:09 51°14.431 2°54.864 6.2 20 7.6 102560 85
2007-03-12 08:04:14 51°14.436 2°54.839 8.4 305 7.6 102560 85
2007-03-12 08:04:19 51°14.441 2°54.812 8.5 22 7.6 102560 85
2007-03-12 08:04:24 51°14.445 2°54.785 8.7 303 7.6 102560 85
2007-03-12 08:04:29 51°14.448 2°54.757 7.7 28 7.6 102560 84
2007-03-12 08:04:34 51°14.45 2°54.729 8.1 309 7.6 102560 84
2007-03-12 08:04:39 51°14.452 2°54.701 9.9 20 7.6 102560 84
2007-03-12 08:04:44 51°14.452 2°54.673 8.7 305 7.6 102560 84
2007-03-12 08:04:49 51°14.451 2°54.644 8.6 25 7.6 102560 84
2007-03-12 08:04:54 51°14.449 2°54.615 8.9 303 7.6 102560 84
2007-03-12 08:04:59 51°14.446 2°54.586 9.7 26 7.6 102560 84
2007-03-12 08:05:04 51°14.442 2°54.558 9.7 302 7.6 102560 84
2007-03-12 08:05:08 51°14.438 2°54.535 10.7 24 7.6 102560 83
2007-03-12 08:05:14 51°14.432 2°54.501 9.8 303 7.6 102560 83
2007-03-12 08:05:19 51°14.425 2°54.474 10.4 22 7.6 102550 83
2007-03-12 08:05:24 51°14.417 2°54.447 10.3 306 7.6 102550 83
2007-03-12 08:05:28 51°14.411 2°54.425 12.1 21 7.6 102530 83
2007-03-12 08:05:34 51°14.402 2°54.392 11.6 302 7.6 102530 83
2007-03-12 08:05:39 51°14.394 2°54.366 10.8 22 7.6 102540 83
2007-03-12 08:05:44 51°14.386 2°54.339 11.4 303 7.6 102540 83
2007-03-12 08:05:48 51°14.379 2°54.317 11.1 24 7.6 102540 83
2007-03-12 08:05:54 51°14.369 2°54.285 10.9 309 7.6 102540 83
2007-03-12 08:05:59 51°14.361 2°54.258 11.2 315 7.6 102530 83
2007-03-12 08:06:04 51°14.352 2°54.231 11 305 7.6 102530 83
2007-03-12 08:06:09 51°14.343 2°54.205 10.5 26 7.5 102530 82
2007-03-12 08:06:14 51°14.333 2°54.179 11.9 302 7.5 102530 82
2007-03-12 08:06:19 51°14.324 2°54.153 11.1 26 7.5 102530 83
2007-03-12 08:06:24 51°14.314 2°54.127 11.3 303 7.5 102530 83
2007-03-12 08:06:29 51°14.305 2°54.101 10.7 22 7.5 102530 83
2007-03-12 08:06:34 51°14.295 2°54.075 9.8 310 7.5 102530 83
2007-03-12 08:06:38 51°14.288 2°54.054 11.1 20 7.5 102530 83
2007-03-12 08:06:44 51°14.277 2°54.023 11.8 304 7.5 102530 83
2007-03-12 08:06:49 51°14.267 2°53.997 10.9 20 7.4 102530 83
2007-03-12 08:06:54 51°14.258 2°53.97 11 306 7.4 102530 83
2007-03-12 08:06:59 51°14.249 2°53.944 9.6 27 7.4 102530 83
2007-03-12 08:07:03 51°14.241 2°53.923 10.1 305 7.4 102530 83
2007-03-12 08:07:09 51°14.23 2°53.892 11.3 21 7.4 102540 83
2007-03-12 08:07:14 51°14.221 2°53.866 11 309 7.4 102540 83
2007-03-12 08:07:19 51°14.212 2°53.84 11.2 22 7.4 102530 83
2007-03-12 08:07:24 51°14.202 2°53.813 9.9 309 7.4 102530 83
2007-03-12 08:07:28 51°14.195 2°53.792 11.2 316 7.3 102530 83
2007-03-12 08:07:34 51°14.184 2°53.761 11.2 306 7.3 102530 83
2007-03-12 08:07:39 51°14.175 2°53.735 10.5 19 7.3 102530 83
2007-03-12 08:07:44 51°14.166 2°53.709 10.7 304 7.3 102530 83
2007-03-12 08:07:49 51°14.157 2°53.682 11.2 22 7.3 102530 83
2007-03-12 08:07:54 51°14.147 2°53.656 10.5 305 7.3 102530 83
2007-03-12 08:07:59 51°14.138 2°53.63 10.5 316 7.3 102530 83
2007-03-12 08:08:04 51°14.129 2°53.604 10.7 305 7.3 102530 83
2007-03-12 08:08:08 51°14.121 2°53.582 11.5 26 7.2 102540 83
2007-03-12 08:08:14 51°14.11 2°53.551 11.1 305 7.2 102540 83
2007-03-12 08:08:19 51°14.101 2°53.525 12.2 316 7.2 102540 84
2007-03-12 08:08:24 51°14.092 2°53.498 13 305 7.2 102540 84
2007-03-12 08:08:28 51°14.084 2°53.477 11.7 27 7.2 102530 84
2007-03-12 08:08:34 51°14.073 2°53.445 10.7 307 7.2 102530 84
2007-03-12 08:08:39 51°14.064 2°53.419 11.3 316 7.2 102540 84
2007-03-12 08:08:44 51°14.055 2°53.393 11.1 307 7.2 102540 84
2007-03-12 08:08:49 51°14.045 2°53.367 10.9 19 7.2 102530 84
2007-03-12 08:08:54 51°14.036 2°53.34 10.7 306 7.2 102530 84
2007-03-12 08:08:59 51°14.027 2°53.314 10.7 20 7.2 102530 84
2007-03-12 08:09:03 51°14.02 2°53.292 11.3 302 7.2 102530 84
2007-03-12 08:09:08 51°14.011 2°53.266 11.4 24 7.2 102530 84
2007-03-12 08:09:14 51°14 2°53.234 11.8 307 7.2 102530 84
2007-03-12 08:09:19 51°13.991 2°53.208 10.8 25 7.2 102530 84
2007-03-12 08:09:24 51°13.982 2°53.181 11 307 7.2 102530 84
2007-03-12 08:09:29 51°13.973 2°53.155 11 315 7.2 102540 84
2007-03-12 08:09:34 51°13.964 2°53.128 11.1 302 7.2 102540 84
2007-03-12 08:09:39 51°13.954 2°53.102 9.9 26 7.1 102530 84
2007-03-12 08:09:44 51°13.945 2°53.075 10.4 301 7.1 102530 84
2007-03-12 08:09:48 51°13.938 2°53.054 10.1 316 7.1 102540 84
2007-03-12 08:09:54 51°13.927 2°53.022 11.7 304 7.1 102540 84
2007-03-12 08:09:59 51°13.918 2°52.995 11.2 24 7.1 102540 84
2007-03-12 08:10:04 51°13.909 2°52.968 10.6 304 7.1 102540 84
2007-03-12 08:10:08 51°13.901 2°52.947 10.8 23 7.1 102530 84
2007-03-12 08:10:14 51°13.89 2°52.916 10.4 306 7.1 102530 84
2007-03-12 08:10:18 51°13.883 2°52.894 11.4 315 7.1 102550 85
2007-03-12 08:10:24 51°13.872 2°52.862 10.4 304 7.1 102550 85
2007-03-12 08:10:29 51°13.863 2°52.836 10.9 316 7.1 102540 85
2007-03-12 08:10:34 51°13.853 2°52.809 9.8 309 7.1 102540 85
2007-03-12 08:10:38 51°13.846 2°52.788 10.1 316 7.1 102540 85
2007-03-12 08:10:44 51°13.835 2°52.756 10.5 305 7.1 102540 85
2007-03-12 08:10:49 51°13.825 2°52.729 10.3 316 7.1 102550 85
2007-03-12 08:10:54 51°13.816 2°52.703 10.3 302 7.1 102550 85
2007-03-12 08:10:59 51°13.807 2°52.676 9.3 318 7.1 102540 85
2007-03-12 08:11:04 51°13.798 2°52.65 9.8 309 7.1 102540 85
2007-03-12 08:11:09 51°13.788 2°52.623 10.5 316 7.1 102540 85
2007-03-12 08:11:14 51°13.779 2°52.597 10.2 309 7.1 102540 85
2007-03-12 08:11:19 51°13.77 2°52.57 10 316 7.1 102550 85
2007-03-12 08:11:23 51°13.762 2°52.549 9.5 305 7.1 102550 85
2007-03-12 08:11:28 51°13.753 2°52.522 10.8 318 7.1 102550 85
2007-03-12 08:11:34 51°13.743 2°52.49 11.1 308 7.1 102550 85
2007-03-12 08:11:39 51°13.733 2°52.463 10.4 315 7.1 102550 86
2007-03-12 08:11:44 51°13.724 2°52.437 10 309 7.1 102550 86
2007-03-12 08:11:48 51°13.717 2°52.415 10.7 316 7.1 102550 86
2007-03-12 08:11:54 51°13.706 2°52.383 9.7 306 7.1 102550 86
2007-03-12 08:11:59 51°13.697 2°52.356 10 317 7.1 102540 86
2007-03-12 08:12:04 51°13.688 2°52.33 10.7 303 7.1 102540 86
2007-03-12 08:12:08 51°13.681 2°52.308 10.4 316 7.1 102540 86
2007-03-12 08:12:14 51°13.67 2°52.277 9.4 307 7.1 102540 86
2007-03-12 08:12:19 51°13.66 2°52.25 9.8 316 7.1 102540 86
2007-03-12 08:12:24 51°13.651 2°52.223 10.7 306 7.1 102540 86
2007-03-12 08:12:28 51°13.644 2°52.202 9.2 319 7.1 102550 86
2007-03-12 08:12:34 51°13.633 2°52.17 10.5 306 7.1 102550 86
2007-03-12 08:12:39 51°13.624 2°52.143 10 316 7.1 102540 86
2007-03-12 08:12:44 51°13.615 2°52.116 9.9 307 7.1 102540 86
2007-03-12 08:12:48 51°13.608 2°52.095 10.8 317 7.1 102550 87
2007-03-12 08:12:54 51°13.597 2°52.064 11 308 7.1 102550 87
2007-03-12 08:12:59 51°13.587 2°52.037 10.2 22 7.1 102550 87
2007-03-12 08:13:04 51°13.578 2°52.01 10.4 309 7.1 102550 87
2007-03-12 08:13:08 51°13.571 2°51.989 10.5 316 7.1 102540 87
2007-03-12 08:13:14 51°13.56 2°51.957 11 309 7.1 102540 87
2007-03-12 08:13:19 51°13.551 2°51.93 9.6 316 7.1 102540 87
2007-03-12 08:13:24 51°13.542 2°51.904 10.9 305 7.1 102540 87
2007-03-12 08:13:29 51°13.533 2°51.877 11.7 20 7.1 102540 87
2007-03-12 08:13:34 51°13.524 2°51.851 11.2 309 7.1 102540 87
2007-03-12 08:13:39 51°13.515 2°51.824 10.6 316 7.2 102540 87
2007-03-12 08:13:43 51°13.508 2°51.803 11.6 310 7.2 102540 87
2007-03-12 08:13:48 51°13.499 2°51.776 11.5 21 7.1 102540 87
2007-03-12 08:13:54 51°13.488 2°51.743 10.7 304 7.1 102540 87
2007-03-12 08:13:59 51°13.479 2°51.716 11 25 7.1 102540 87
2007-03-12 08:14:04 51°13.47 2°51.689 10.4 309 7.1 102540 87
2007-03-12 08:14:08 51°13.463 2°51.668 10.5 315 7.1 102540 87
2007-03-12 08:14:14 51°13.452 2°51.637 10.4 304 7.1 102540 87
2007-03-12 08:14:19 51°13.443 2°51.611 10.1 316 7.1 102540 87
2007-03-12 08:14:23 51°13.436 2°51.589 10.2 309 7.1 102540 87
2007-03-12 08:14:29 51°13.425 2°51.557 9.8 317 7.1 102540 87
2007-03-12 08:14:34 51°13.416 2°51.53 9.8 307 7.1 102540 87
2007-03-12 08:14:39 51°13.407 2°51.504 11.1 316 7.1 102540 87
2007-03-12 08:14:44 51°13.397 2°51.477 10.8 308 7.1 102540 87
2007-03-12 08:14:48 51°13.39 2°51.456 11.6 315 7.1 102550 87
2007-03-12 08:14:54 51°13.379 2°51.424 11.5 301 7.1 102550 87
2007-03-12 08:14:59 51°13.37 2°51.398 11 316 7.2 102550 87
2007-03-12 08:15:04 51°13.361 2°51.371 10.4 304 7.2 102550 87
2007-03-12 08:15:09 51°13.351 2°51.345 10 316 7.2 102540 87
2007-03-12 08:15:14 51°13.342 2°51.318 10.7 308 7.2 102540 87
2007-03-12 08:15:19 51°13.333 2°51.292 9.8 317 7.1 102540 87
2007-03-12 08:15:23 51°13.326 2°51.271 10.2 310 7.1 102540 87
2007-03-12 08:15:28 51°13.317 2°51.244 10 317 7.1 102540 87
2007-03-12 08:15:34 51°13.306 2°51.212 10.6 307 7.1 102540 87
2007-03-12 08:15:39 51°13.297 2°51.185 10.2 19 7.1 102540 87
2007-03-12 08:15:44 51°13.288 2°51.159 11.1 302 7.1 102540 87
2007-03-12 08:15:49 51°13.279 2°51.132 10.9 21 7.1 102540 87
2007-03-12 08:15:54 51°13.27 2°51.105 10.5 305 7.1 102540 87
2007-03-12 08:15:59 51°13.261 2°51.078 10.7 25 7.2 102540 88
2007-03-12 08:16:04 51°13.252 2°51.051 10.9 308 7.2 102540 88
2007-03-12 08:16:08 51°13.245 2°51.03 11.1 316 7.2 102540 87
2007-03-12 08:16:14 51°13.234 2°50.997 10.6 304 7.2 102540 87
2007-03-12 08:16:19 51°13.225 2°50.971 11.3 19 7.2 102540 87
2007-03-12 08:16:24 51°13.216 2°50.944 10.7 303 7.2 102540 87
2007-03-12 08:16:28 51°13.209 2°50.923 10.7 317 7.2 102540 87
2007-03-12 08:16:34 51°13.198 2°50.89 10.8 304 7.2 102540 87
2007-03-12 08:16:39 51°13.189 2°50.864 10.9 24 7.1 102530 87
2007-03-12 08:16:44 51°13.18 2°50.837 11.2 306 7.1 102530 87
2007-03-12 08:16:48 51°13.173 2°50.816 10.9 316 7.1 102540 87
2007-03-12 08:16:54 51°13.162 2°50.783 9.6 310 7.1 102540 87
2007-03-12 08:16:59 51°13.153 2°50.757 10.4 316 7.2 102540 87
2007-03-12 08:17:04 51°13.144 2°50.73 9.6 305 7.2 102540 87
2007-03-12 08:17:08 51°13.137 2°50.708 10.6 316 7.1 102530 87
2007-03-12 08:17:14 51°13.126 2°50.675 10.9 304 7.1 102530 87
2007-03-12 08:17:19 51°13.118 2°50.648 11.1 316 7.1 102540 87
2007-03-12 08:17:24 51°13.109 2°50.622 9.9 306 7.1 102540 87
2007-03-12 08:17:29 51°13.1 2°50.595 10.2 317 7.1 102540 87
2007-03-12 08:17:34 51°13.091 2°50.568 10.2 304 7.1 102540 87
2007-03-12 08:17:38 51°13.084 2°50.546 9.7 26 7.1 102540 88
2007-03-12 08:17:44 51°13.073 2°50.514 10.9 306 7.1 102540 88
2007-03-12 08:17:49 51°13.064 2°50.487 10.8 317 7.1 102540 88
2007-03-12 08:17:54 51°13.055 2°50.46 10.5 301 7.1 102540 88
2007-03-12 08:17:58 51°13.048 2°50.439 10.2 26 7.1 102550 88
2007-03-12 08:18:03 51°13.038 2°50.412 10.8 301 7.1 102550 88
2007-03-12 08:18:09 51°13.028 2°50.38 11.2 316 7.1 102540 88
2007-03-12 08:18:14 51°13.019 2°50.353 11.1 304 7.1 102540 88
2007-03-12 08:18:19 51°13.01 2°50.326 11.8 315 7.1 102540 88
2007-03-12 08:18:24 51°13.001 2°50.299 10.1 311 7.1 102540 88
2007-03-12 08:18:28 51°12.994 2°50.277 11 315 7.1 102540 88
2007-03-12 08:18:34 51°12.983 2°50.245 11.7 307 7.1 102540 88
2007-03-12 08:18:39 51°12.974 2°50.218 10.9 25 7.1 102540 88
2007-03-12 08:18:43 51°12.967 2°50.197 10.6 301 7.1 102540 88
2007-03-12 08:18:48 51°12.958 2°50.17 10.9 317 7.1 102540 88
2007-03-12 08:18:54 51°12.947 2°50.138 10.2 304 7.1 102540 88
2007-03-12 08:18:59 51°12.938 2°50.111 11.2 316 7.1 102540 88
2007-03-12 08:19:04 51°12.929 2°50.084 10.9 303 7.1 102540 88
2007-03-12 08:19:08 51°12.922 2°50.063 11.5 316 7.1 102540 88
2007-03-12 08:19:14 51°12.911 2°50.031 10.4 307 7.1 102540 88
2007-03-12 08:19:19 51°12.902 2°50.004 11.2 318 7.1 102540 88
2007-03-12 08:19:24 51°12.893 2°49.978 11 309 7.1 102540 88
2007-03-12 08:19:28 51°12.886 2°49.956 10.6 25 7.1 102540 88
2007-03-12 08:19:34 51°12.875 2°49.924 10.5 310 7.1 102540 88
2007-03-12 08:19:39 51°12.866 2°49.897 11.5 23 7.1 102530 88
2007-03-12 08:19:44 51°12.857 2°49.871 11.7 304 7.1 102530 88
2007-03-12 08:19:49 51°12.848 2°49.844 11.7 22 7.1 102530 88
2007-03-12 08:19:54 51°12.839 2°49.817 11.1 310 7.1 102530 88
2007-03-12 08:19:59 51°12.83 2°49.79 10.5 315 7.1 102540 88
2007-03-12 08:20:03 51°12.823 2°49.769 9.9 303 7.1 102540 88
2007-03-12 08:20:08 51°12.814 2°49.742 10.2 316 7.1 102540 88
2007-03-12 08:20:14 51°12.803 2°49.71 10.4 306 7.1 102540 88
2007-03-12 08:20:19 51°12.794 2°49.683 10.8 316 7.1 102540 88
2007-03-12 08:20:23 51°12.786 2°49.662 10.1 307 7.1 102540 88
2007-03-12 08:20:29 51°12.775 2°49.63 10.5 315 7.1 102540 88
2007-03-12 08:20:34 51°12.766 2°49.603 10.4 308 7.1 102540 88
2007-03-12 08:20:39 51°12.757 2°49.577 10.9 21 7.2 102540 88
2007-03-12 08:20:44 51°12.747 2°49.55 11.2 308 7.2 102540 88
2007-03-12 08:20:48 51°12.74 2°49.529 10.2 27 7.1 102550 88
2007-03-12 08:20:54 51°12.729 2°49.496 10.8 303 7.1 102550 88
2007-03-12 08:20:59 51°12.72 2°49.47 10.9 23 7.1 102540 88
2007-03-12 08:21:03 51°12.712 2°49.448 10.1 306 7.1 102540 88
2007-03-12 08:21:08 51°12.703 2°49.421 10.1 316 7.2 102530 89
2007-03-12 08:21:14 51°12.692 2°49.39 10 305 7.2 102530 89
2007-03-12 08:21:19 51°12.683 2°49.363 10.8 317 7.2 102540 89
2007-03-12 08:21:24 51°12.673 2°49.336 10.7 311 7.2 102540 89
2007-03-12 08:21:29 51°12.664 2°49.309 11 315 7.2 102540 89
2007-03-12 08:21:34 51°12.655 2°49.282 9.9 305 7.2 102540 89
2007-03-12 08:21:39 51°12.645 2°49.256 10.6 22 7.2 102540 89
2007-03-12 08:21:43 51°12.638 2°49.235 9.9 305 7.2 102540 89
2007-03-12 08:21:49 51°12.627 2°49.202 10.1 318 7.2 102540 89
2007-03-12 08:21:54 51°12.618 2°49.176 11.1 310 7.2 102540 89
2007-03-12 08:21:59 51°12.608 2°49.149 11 316 7.2 102540 89
2007-03-12 08:22:04 51°12.599 2°49.122 11 305 7.2 102540 89
2007-03-12 08:22:09 51°12.589 2°49.096 10.8 316 7.2 102540 89
2007-03-12 08:22:14 51°12.58 2°49.069 11.4 305 7.2 102540 89
2007-03-12 08:22:19 51°12.571 2°49.042 11.4 21 7.2 102530 89
2007-03-12 08:22:23 51°12.563 2°49.021 11.3 305 7.2 102530 89
2007-03-12 08:22:29 51°12.552 2°48.989 10.6 23 7.3 102540 89
2007-03-12 08:22:34 51°12.543 2°48.962 10.3 303 7.3 102540 89
2007-03-12 08:22:39 51°12.534 2°48.935 11.1 317 7.3 102530 89
2007-03-12 08:22:43 51°12.526 2°48.913 11.1 307 7.3 102530 89
2007-03-12 08:22:48 51°12.517 2°48.886 11.7 316 7.3 102530 89
2007-03-12 08:22:54 51°12.506 2°48.854 11.2 308 7.3 102530 89
2007-03-12 08:22:59 51°12.497 2°48.827 10.9 315 7.3 102540 89
2007-03-12 08:23:04 51°12.488 2°48.8 10.3 308 7.3 102540 89
2007-03-12 08:23:08 51°12.48 2°48.779 10.5 316 7.3 102520 88
2007-03-12 08:23:14 51°12.469 2°48.746 11 309 7.3 102520 88
2007-03-12 08:23:19 51°12.46 2°48.72 10.9 25 7.3 102530 88
2007-03-12 08:23:24 51°12.45 2°48.693 11 307 7.3 102530 88
2007-03-12 08:23:28 51°12.443 2°48.672 10.5 21 7.3 102530 88
2007-03-12 08:23:33 51°12.434 2°48.645 10.9 310 7.3 102530 88
2007-03-12 08:23:39 51°12.422 2°48.612 11.1 20 7.3 102540 88
2007-03-12 08:23:44 51°12.413 2°48.585 11.3 305 7.3 102540 88
2007-03-12 08:23:48 51°12.406 2°48.564 11.6 317 7.3 102540 88
2007-03-12 08:23:54 51°12.395 2°48.531 10.5 308 7.3 102540 88
2007-03-12 08:23:59 51°12.386 2°48.504 10.8 317 7.3 102530 88
2007-03-12 08:24:04 51°12.376 2°48.478 10.4 305 7.3 102530 88
2007-03-12 08:24:08 51°12.369 2°48.456 10.2 27 7.3 102540 88
2007-03-12 08:24:14 51°12.358 2°48.424 11.7 307 7.3 102540 88
2007-03-12 08:24:19 51°12.349 2°48.397 11.3 23 7.3 102530 88
2007-03-12 08:24:24 51°12.339 2°48.37 10.6 307 7.3 102530 88
2007-03-12 08:24:29 51°12.33 2°48.343 10.4 317 7.3 102530 88
2007-03-12 08:24:34 51°12.321 2°48.316 11.5 310 7.3 102530 88
2007-03-12 08:24:39 51°12.311 2°48.289 11.4 316 7.3 102540 88
2007-03-12 08:24:43 51°12.304 2°48.268 11.4 309 7.3 102540 88
2007-03-12 08:24:49 51°12.293 2°48.236 11.6 21 7.3 102530 88
2007-03-12 08:24:54 51°12.283 2°48.209 10.7 309 7.3 102530 88
2007-03-12 08:24:58 51°12.276 2°48.188 11.7 26 7.3 102530 88
2007-03-12 08:25:03 51°12.266 2°48.162 10.8 307 7.3 102530 88
2007-03-12 08:25:09 51°12.255 2°48.129 11.9 315 7.3 102530 88
2007-03-12 08:25:14 51°12.246 2°48.103 11.1 309 7.3 102530 88
2007-03-12 08:25:19 51°12.237 2°48.076 10.7 24 7.4 102530 88
2007-03-12 08:25:23 51°12.229 2°48.054 11.4 281 7.4 102530 88
2007-03-12 08:25:29 51°12.218 2°48.022 10.9 24 7.4 102540 88
2007-03-12 08:25:34 51°12.209 2°47.995 10.4 304 7.4 102540 88
2007-03-12 08:25:39 51°12.199 2°47.968 10.4 316 7.4 102530 88
2007-03-12 08:25:44 51°12.19 2°47.941 11 304 7.4 102530 88
2007-03-12 08:25:48 51°12.183 2°47.92 11.4 316 7.4 102530 88
2007-03-12 08:25:54 51°12.171 2°47.887 11.4 308 7.4 102530 88
2007-03-12 08:25:59 51°12.162 2°47.861 10.9 26 7.4 102540 88
2007-03-12 08:26:04 51°12.153 2°47.834 10.1 306 7.4 102540 88
2007-03-12 08:26:09 51°12.144 2°47.807 10.5 21 7.4 102540 88
2007-03-12 08:26:14 51°12.134 2°47.78 11.5 303 7.4 102540 88
2007-03-12 08:26:19 51°12.125 2°47.753 11.4 27 7.4 102530 88
2007-03-12 08:26:24 51°12.116 2°47.726 10.7 304 7.4 102530 88
2007-03-12 08:26:28 51°12.108 2°47.705 11.2 23 7.4 102540 88
2007-03-12 08:26:34 51°12.097 2°47.672 11.4 305 7.4 102540 88
2007-03-12 08:26:39 51°12.088 2°47.646 11.4 316 7.4 102540 88
2007-03-12 08:26:44 51°12.079 2°47.619 10.5 306 7.4 102540 88
2007-03-12 08:26:49 51°12.069 2°47.592 10.7 316 7.4 102540 88
2007-03-12 08:26:54 51°12.06 2°47.565 10.7 303 7.4 102540 88
2007-03-12 08:26:59 51°12.051 2°47.538 11.8 24 7.4 102530 88
2007-03-12 08:27:04 51°12.042 2°47.511 11.2 303 7.4 102530 88
2007-03-12 08:27:09 51°12.033 2°47.484 11.4 316 7.4 102540 88
2007-03-12 08:27:14 51°12.023 2°47.457 11.1 303 7.4 102540 88
2007-03-12 08:27:19 51°12.014 2°47.43 10.3 316 7.4 102540 88
2007-03-12 08:27:23 51°12.007 2°47.409 10.8 284 7.4 102540 88
2007-03-12 08:27:28 51°11.997 2°47.382 12.4 316 7.4 102540 88
2007-03-12 08:27:34 51°11.987 2°47.349 12 308 7.4 102540 88
2007-03-12 08:27:39 51°11.978 2°47.322 12.3 20 7.4 102530 88
2007-03-12 08:27:44 51°11.97 2°47.294 11.3 304 7.4 102530 88
2007-03-12 08:27:48 51°11.964 2°47.271 11.8 27 7.5 102530 88
2007-03-12 08:27:54 51°11.955 2°47.238 10 305 7.5 102530 88
2007-03-12 08:27:59 51°11.948 2°47.209 10.6 19 7.4 102530 88
2007-03-12 08:28:04 51°11.94 2°47.181 10.8 309 7.4 102530 88
2007-03-12 08:28:08 51°11.935 2°47.158 10.7 24 7.5 102530 88
2007-03-12 08:28:14 51°11.927 2°47.123 9.9 307 7.5 102530 88
2007-03-12 08:28:19 51°11.921 2°47.094 10.8 26 7.4 102540 88
2007-03-12 08:28:24 51°11.914 2°47.065 10 307 7.4 102540 88
2007-03-12 08:28:29 51°11.909 2°47.035 10 21 7.5 102540 88
2007-03-12 08:28:34 51°11.903 2°47.006 9.8 307 7.5 102540 88
2007-03-12 08:28:38 51°11.898 2°46.983 10.4 20 7.5 102540 88
2007-03-12 08:28:44 51°11.891 2°46.947 10 309 7.5 102540 88
2007-03-12 08:28:49 51°11.885 2°46.918 10.8 23 7.5 102540 88
2007-03-12 08:28:54 51°11.879 2°46.889 9.8 305 7.5 102540 88
2007-03-12 08:28:58 51°11.874 2°46.865 9.7 22 7.4 102540 88
2007-03-12 08:29:03 51°11.868 2°46.836 11.2 304 7.4 102540 88
2007-03-12 08:29:09 51°11.862 2°46.8 10.4 25 7.4 102540 88
2007-03-12 08:29:14 51°11.856 2°46.771 10.4 303 7.4 102540 88
2007-03-12 08:29:19 51°11.85 2°46.742 10.1 25 7.4 102540 88
2007-03-12 08:29:24 51°11.844 2°46.712 10.5 303 7.4 102540 88
2007-03-12 08:29:29 51°11.838 2°46.683 11.4 28 7.4 102540 88
2007-03-12 08:29:34 51°11.833 2°46.653 10.3 303 7.4 102540 88
2007-03-12 08:29:39 51°11.827 2°46.624 10.2 23 7.4 102540 88
2007-03-12 08:29:43 51°11.822 2°46.6 10.8 310 7.4 102540 88
2007-03-12 08:29:48 51°11.817 2°46.571 11.7 20 7.4 102550 88
2007-03-12 08:29:54 51°11.809 2°46.536 10 310 7.4 102550 88
2007-03-12 08:29:59 51°11.804 2°46.506 10 18 7.4 102550 88
2007-03-12 08:30:04 51°11.797 2°46.477 10.4 306 7.4 102550 88
2007-03-12 08:30:08 51°11.792 2°46.454 10.5 23 7.5 102550 88
2007-03-12 08:30:14 51°11.785 2°46.419 9.9 306 7.5 102550 88
2007-03-12 08:30:19 51°11.778 2°46.391 9.8 23 7.4 102540 88
2007-03-12 08:30:24 51°11.772 2°46.361 10.9 310 7.4 102540 88
2007-03-12 08:30:28 51°11.766 2°46.338 10.3 24 7.5 102550 88
2007-03-12 08:30:34 51°11.759 2°46.304 10.6 304 7.5 102550 88
2007-03-12 08:30:39 51°11.752 2°46.275 10.4 316 7.5 102540 88
2007-03-12 08:30:44 51°11.746 2°46.246 11.2 308 7.5 102540 88
2007-03-12 08:30:49 51°11.739 2°46.217 10.1 25 7.5 102540 88
2007-03-12 08:30:54 51°11.733 2°46.189 10.1 308 7.5 102540 88
2007-03-12 08:30:59 51°11.726 2°46.16 10.9 19 7.5 102540 88
2007-03-12 08:31:04 51°11.719 2°46.131 10.5 304 7.5 102540 88
2007-03-12 08:31:08 51°11.714 2°46.108 10.9 23 7.5 102540 88
2007-03-12 08:31:14 51°11.706 2°46.074 10.4 306 7.5 102540 88
2007-03-12 08:31:19 51°11.7 2°46.045 9.9 26 7.5 102550 88
2007-03-12 08:31:23 51°11.694 2°46.022 10.2 284 7.5 102550 88
2007-03-12 08:31:29 51°11.687 2°45.987 10.8 316 7.5 102550 88
2007-03-12 08:31:34 51°11.68 2°45.958 10.3 305 7.5 102550 88
2007-03-12 08:31:39 51°11.673 2°45.93 10.2 24 7.5 102550 88
2007-03-12 08:31:44 51°11.667 2°45.901 10.1 305 7.5 102550 88
2007-03-12 08:31:49 51°11.66 2°45.872 10.6 25 7.5 102540 88
2007-03-12 08:31:54 51°11.653 2°45.843 10.8 304 7.5 102540 88
2007-03-12 08:31:59 51°11.647 2°45.814 10.4 27 7.5 102540 88
2007-03-12 08:32:03 51°11.641 2°45.791 10 309 7.5 102540 88
2007-03-12 08:32:08 51°11.635 2°45.762 10.3 315 7.5 102550 88
2007-03-12 08:32:14 51°11.626 2°45.728 11.2 305 7.5 102550 88
2007-03-12 08:32:19 51°11.62 2°45.699 9.9 25 7.5 102560 88
2007-03-12 08:32:24 51°11.613 2°45.67 10.4 280 7.5 102560 88
2007-03-12 08:32:29 51°11.607 2°45.641 9.5 25 7.5 102550 88
2007-03-12 08:32:34 51°11.6 2°45.612 10.1 302 7.5 102550 88
2007-03-12 08:32:39 51°11.593 2°45.584 9.7 25 7.5 102550 88
2007-03-12 08:32:43 51°11.588 2°45.561 10 306 7.5 102550 88
2007-03-12 08:32:49 51°11.58 2°45.526 9.7 22 7.6 102550 88
2007-03-12 08:32:54 51°11.574 2°45.497 10.3 305 7.6 102550 88
2007-03-12 08:32:59 51°11.567 2°45.468 10.3 20 7.6 102550 87
2007-03-12 08:33:04 51°11.561 2°45.439 10.2 302 7.6 102550 87
2007-03-12 08:33:09 51°11.554 2°45.41 9.5 28 7.6 102560 87
2007-03-12 08:33:14 51°11.548 2°45.381 9.2 303 7.6 102560 87
2007-03-12 08:33:19 51°11.541 2°45.352 9.7 316 7.6 102560 87
2007-03-12 08:33:24 51°11.535 2°45.323 11.1 307 7.6 102560 87
2007-03-12 08:33:29 51°11.528 2°45.294 9.8 316 7.6 102550 87
2007-03-12 08:33:34 51°11.521 2°45.265 10.4 305 7.6 102550 87
2007-03-12 08:33:39 51°11.515 2°45.236 9.9 25 7.6 102560 88
2007-03-12 08:33:43 51°11.51 2°45.212 10.7 301 7.6 102560 88
2007-03-12 08:33:49 51°11.503 2°45.177 10.3 25 7.6 102550 88
2007-03-12 08:33:54 51°11.498 2°45.148 9.4 308 7.6 102550 88
2007-03-12 08:33:58 51°11.493 2°45.124 9.7 316 7.6 102560 88
2007-03-12 08:34:03 51°11.487 2°45.095 10.3 306 7.6 102560 88
2007-03-12 08:34:08 51°11.481 2°45.065 9.2 316 7.6 102550 87
2007-03-12 08:34:14 51°11.475 2°45.03 9.9 309 7.6 102550 87
2007-03-12 08:34:18 51°11.47 2°45.006 9.9 19 7.7 102560 87
2007-03-12 08:34:23 51°11.464 2°44.977 10.3 280 7.7 102560 87
2007-03-12 08:34:28 51°11.459 2°44.947 9.8 27 7.7 102550 87
2007-03-12 08:34:34 51°11.452 2°44.912 10.2 309 7.7 102550 87
2007-03-12 08:34:38 51°11.447 2°44.888 9.7 22 7.7 102560 87
2007-03-12 08:34:43 51°11.442 2°44.859 10.5 302 7.7 102560 87
2007-03-12 08:34:48 51°11.436 2°44.829 10.6 21 7.7 102550 87
2007-03-12 08:34:53 51°11.43 2°44.8 9.3 303 7.7 102550 87
2007-03-12 08:34:59 51°11.424 2°44.764 9.4 27 7.7 102560 87
2007-03-12 08:35:03 51°11.419 2°44.741 9.6 307 7.7 102560 87
2007-03-12 08:35:08 51°11.413 2°44.711 10.6 24 7.7 102560 87
2007-03-12 08:35:13 51°11.408 2°44.682 10.3 306 7.7 102560 87
2007-03-12 08:35:18 51°11.402 2°44.652 10 22 7.8 102550 87
2007-03-12 08:35:23 51°11.397 2°44.622 10 305 7.8 102550 87
2007-03-12 08:35:28 51°11.391 2°44.593 9.2 27 7.7 102560 87
2007-03-12 08:35:34 51°11.385 2°44.557 9.7 304 7.7 102560 87
2007-03-12 08:35:38 51°11.38 2°44.534 9.8 315 7.8 102560 87
2007-03-12 08:35:43 51°11.374 2°44.504 9.5 304 7.8 102560 87
2007-03-12 08:35:48 51°11.369 2°44.475 10.3 23 7.7 102550 86
2007-03-12 08:35:54 51°11.362 2°44.439 9.7 306 7.7 102550 86
2007-03-12 08:35:58 51°11.357 2°44.416 9.8 316 7.8 102550 86
2007-03-12 08:36:03 51°11.352 2°44.386 9.8 307 7.8 102550 86
2007-03-12 08:36:08 51°11.346 2°44.357 9.4 25 7.8 102550 86
2007-03-12 08:36:13 51°11.34 2°44.327 10.3 311 7.8 102550 86
2007-03-12 08:36:18 51°11.334 2°44.298 10.1 19 7.8 102560 86
2007-03-12 08:36:23 51°11.329 2°44.268 10.3 287 7.8 102560 86
2007-03-12 08:36:28 51°11.323 2°44.239 10 22 7.7 102550 86
2007-03-12 08:36:33 51°11.317 2°44.209 11 310 7.7 102550 86
2007-03-12 08:36:38 51°11.312 2°44.179 9.4 21 7.7 102560 86
2007-03-12 08:36:43 51°11.306 2°44.15 10.1 305 7.7 102560 86
2007-03-12 08:36:48 51°11.3 2°44.12 10 26 7.7 102550 86
2007-03-12 08:36:53 51°11.295 2°44.091 10.5 309 7.7 102550 86
2007-03-12 08:36:59 51°11.288 2°44.055 11 21 7.7 102550 86
2007-03-12 08:37:03 51°11.283 2°44.032 10.6 304 7.7 102550 86
2007-03-12 08:37:08 51°11.278 2°44.002 10.4 25 7.7 102560 86
2007-03-12 08:37:13 51°11.272 2°43.972 10.4 307 7.7 102560 86
2007-03-12 08:37:18 51°11.266 2°43.943 10.3 25 7.7 102550 86
2007-03-12 08:37:23 51°11.261 2°43.913 9.9 306 7.7 102550 86
2007-03-12 08:37:28 51°11.256 2°43.883 9.9 20 7.7 102550 86
2007-03-12 08:37:34 51°11.251 2°43.847 9.4 309 7.7 102550 86
2007-03-12 08:37:38 51°11.247 2°43.823 9.4 21 7.7 102550 86
2007-03-12 08:37:43 51°11.244 2°43.793 9.1 304 7.7 102550 86
2007-03-12 08:37:48 51°11.24 2°43.762 10.1 22 7.7 102550 86
2007-03-12 08:37:54 51°11.237 2°43.725 9.3 305 7.7 102550 86
2007-03-12 08:37:58 51°11.234 2°43.701 9.3 26 7.7 102560 86
2007-03-12 08:38:03 51°11.232 2°43.67 10.7 306 7.7 102560 86
2007-03-12 08:38:08 51°11.229 2°43.639 9.7 26 7.7 102550 86
2007-03-12 08:38:13 51°11.227 2°43.609 10.3 308 7.7 102550 86
2007-03-12 08:38:18 51°11.225 2°43.578 10 25 7.7 102550 86
2007-03-12 08:38:23 51°11.222 2°43.547 9.2 282 7.7 102550 86
2007-03-12 08:38:28 51°11.22 2°43.516 10.3 22 7.6 102550 86
2007-03-12 08:38:33 51°11.218 2°43.486 9.6 306 7.6 102550 86
2007-03-12 08:38:38 51°11.216 2°43.458 9.6 26 7.6 102560 86
2007-03-12 08:38:43 51°11.213 2°43.43 9.1 308 7.6 102560 86
2007-03-12 08:38:48 51°11.211 2°43.404 8.4 21 7.6 102560 86
2007-03-12 08:38:54 51°11.209 2°43.374 8.2 305 7.6 102560 86
2007-03-12 08:38:58 51°11.207 2°43.355 8.5 26 7.6 102560 86
2007-03-12 08:39:03 51°11.205 2°43.331 9.4 309 7.6 102560 86
2007-03-12 08:39:08 51°11.202 2°43.307 8 24 7.6 102560 86
2007-03-12 08:39:14 51°11.198 2°43.279 9.4 304 7.6 102560 86
2007-03-12 08:39:18 51°11.195 2°43.261 8.7 27 7.6 102560 86
2007-03-12 08:39:23 51°11.192 2°43.238 9.2 308 7.6 102560 86
2007-03-12 08:39:28 51°11.188 2°43.215 8.4 20 7.6 102570 86
2007-03-12 08:39:33 51°11.185 2°43.193 7.9 309 7.6 102570 86
2007-03-12 08:39:38 51°11.183 2°43.17 8.5 22 7.6 102560 87
2007-03-12 08:39:43 51°11.181 2°43.147 8.5 304 7.6 102560 87
2007-03-12 08:39:48 51°11.18 2°43.124 7.9 21 7.6 102550 87
2007-03-12 08:39:53 51°11.179 2°43.101 7.4 309 7.6 102550 87
2007-03-12 08:39:58 51°11.179 2°43.078 7.4 22 7.6 102560 87
2007-03-12 08:40:03 51°11.179 2°43.055 7.8 302 7.6 102560 87
2007-03-12 08:40:08 51°11.179 2°43.032 7.1 26 7.6 102570 87
2007-03-12 08:40:13 51°11.179 2°43.009 7.6 303 7.6 102570 87
2007-03-12 08:40:18 51°11.179 2°42.986 8.1 26 7.6 102560 87
2007-03-12 08:40:23 51°11.179 2°42.963 8.5 285 7.6 102560 87
2007-03-12 08:40:28 51°11.178 2°42.94 7.6 24 7.7 102570 87
2007-03-12 08:40:34 51°11.178 2°42.913 7.8 305 7.7 102570 87
2007-03-12 08:40:38 51°11.177 2°42.895 8.4 25 7.7 102570 87
2007-03-12 08:40:43 51°11.177 2°42.872 8 307 7.7 102570 87
2007-03-12 08:40:48 51°11.176 2°42.849 8.6 26 7.7 102570 87
2007-03-12 08:40:54 51°11.175 2°42.822 7.9 305 7.7 102570 87
2007-03-12 08:40:58 51°11.174 2°42.803 7.6 22 7.7 102570 87
2007-03-12 08:41:03 51°11.173 2°42.78 7.2 303 7.7 102570 87
2007-03-12 08:41:08 51°11.172 2°42.758 7.5 24 7.7 102570 87
2007-03-12 08:41:13 51°11.171 2°42.735 8.2 306 7.7 102570 87
2007-03-12 08:41:18 51°11.17 2°42.713 7.2 21 7.7 102570 87
2007-03-12 08:41:23 51°11.169 2°42.692 7.6 282 7.7 102570 87
2007-03-12 08:41:28 51°11.167 2°42.672 7.2 19 7.7 102570 87
2007-03-12 08:41:34 51°11.165 2°42.649 7 308 7.7 102570 87
2007-03-12 08:41:38 51°11.164 2°42.634 7 18 7.7 102570 87
2007-03-12 08:41:43 51°11.162 2°42.617 7.8 310 7.7 102570 87
2007-03-12 08:41:48 51°11.16 2°42.6 7 26 7.7 102570 87
2007-03-12 08:41:53 51°11.158 2°42.584 7.8 306 7.7 102570 87
2007-03-12 08:41:58 51°11.156 2°42.568 7.1 25 7.8 102570 87
2007-03-12 08:42:03 51°11.154 2°42.553 6.5 310 7.8 102570 87
2007-03-12 08:42:08 51°11.152 2°42.538 6.5 25 7.8 102570 87
2007-03-12 08:42:13 51°11.15 2°42.523 7.1 303 7.8 102570 87
2007-03-12 08:42:19 51°11.148 2°42.506 7 22 7.8 102570 87
2007-03-12 08:42:23 51°11.146 2°42.495 6.2 279 7.8 102570 87
2007-03-12 08:42:28 51°11.144 2°42.482 7.2 20 7.8 102580 87
2007-03-12 08:42:33 51°11.143 2°42.469 5.9 304 7.8 102580 87
2007-03-12 08:42:38 51°11.141 2°42.456 6.8 26 7.8 102580 87
2007-03-12 08:42:43 51°11.139 2°42.443 6.9 307 7.8 102580 87
2007-03-12 08:42:48 51°11.138 2°42.431 7.2 26 7.8 102570 87
2007-03-12 08:42:54 51°11.135 2°42.416 6.9 304 7.8 102570 87
2007-03-12 08:42:58 51°11.134 2°42.405 6.5 25 7.8 102580 87
2007-03-12 08:43:03 51°11.132 2°42.391 6.8 306 7.8 102580 87
2007-03-12 08:43:08 51°11.13 2°42.377 6.7 28 7.9 102580 87
2007-03-12 08:43:14 51°11.128 2°42.359 7.6 308 7.9 102580 87
2007-03-12 08:43:18 51°11.127 2°42.347 6.7 25 7.9 102580 87
2007-03-12 08:43:23 51°11.125 2°42.332 6.7 304 7.9 102580 87
2007-03-12 08:43:28 51°11.124 2°42.318 7.3 22 7.9 102580 87
2007-03-12 08:43:34 51°11.122 2°42.301 6.6 302 7.9 102580 87
2007-03-12 08:43:38 51°11.121 2°42.29 7 19 7.9 102580 87
2007-03-12 08:43:43 51°11.12 2°42.276 6.1 307 7.9 102580 87
2007-03-12 08:43:48 51°11.119 2°42.263 6.6 24 7.9 102580 87
2007-03-12 08:43:54 51°11.118 2°42.248 6.2 303 7.9 102580 87
2007-03-12 08:43:58 51°11.117 2°42.238 6.6 26 7.9 102580 87
2007-03-12 08:44:03 51°11.115 2°42.225 5.9 308 7.9 102580 87
2007-03-12 08:44:08 51°11.114 2°42.214 6.2 24 7.9 102580 87
2007-03-12 08:44:13 51°11.112 2°42.202 7 303 7.9 102580 87
2007-03-12 08:44:18 51°11.111 2°42.191 6.3 27 7.9 102580 87
2007-03-12 08:44:23 51°11.109 2°42.18 5.5 282 7.9 102580 87
2007-03-12 08:44:28 51°11.108 2°42.169 6.6 25 7.9 102580 87
2007-03-12 08:44:34 51°11.106 2°42.157 6.6 302 7.9 102580 87
2007-03-12 08:44:38 51°11.105 2°42.149 5.7 27 7.9 102580 87
2007-03-12 08:44:43 51°11.103 2°42.14 6.7 303 7.9 102580 87
2007-03-12 08:44:48 51°11.101 2°42.13 6.3 24 8 102580 87
2007-03-12 08:44:53 51°11.1 2°42.121 7.1 304 8 102580 87
2007-03-12 08:44:58 51°11.098 2°42.113 6 26 8 102580 87
2007-03-12 08:45:03 51°11.096 2°42.105 6.7 306 8 102580 87
2007-03-12 08:45:08 51°11.095 2°42.097 6.8 18 8 102580 87
2007-03-12 08:45:13 51°11.093 2°42.091 5.8 302 8 102580 87
2007-03-12 08:45:18 51°11.092 2°42.085 5.7 27 8 102580 87
2007-03-12 08:45:23 51°11.091 2°42.08 5.3 304 8 102580 87
2007-03-12 08:45:28 51°11.09 2°42.075 4.9 246 8 102580 86
2007-03-12 08:45:33 51°11.09 2°42.072 4.9 303 8 102580 86
2007-03-12 08:45:38 51°11.089 2°42.069 5 250 8 102580 86
2007-03-12 08:45:43 51°11.089 2°42.066 5.6 303 8 102580 86
2007-03-12 08:45:48 51°11.089 2°42.064 5.1 249 8 102590 86
2007-03-12 08:45:54 51°11.089 2°42.061 5 308 8 102590 86
2007-03-12 08:45:58 51°11.089 2°42.06 5.5 21 8 102590 86
2007-03-12 08:46:03 51°11.089 2°42.057 5.8 309 8 102590 86
2007-03-12 08:46:08 51°11.09 2°42.055 5.4 252 8.1 102590 86
2007-03-12 08:46:13 51°11.09 2°42.053 5.1 308 8.1 102590 86
2007-03-12 08:46:18 51°11.09 2°42.051 4.9 252 8.1 102590 86
2007-03-12 08:46:23 51°11.09 2°42.049 5 286 8.1 102590 86
2007-03-12 08:46:28 51°11.09 2°42.047 5.3 257 8.1 102590 86
2007-03-12 08:46:33 51°11.09 2°42.045 4.9 306 8.1 102590 86
2007-03-12 08:46:38 51°11.091 2°42.043 5.1 258 8.1 102580 86
2007-03-12 08:46:43 51°11.091 2°42.041 5.2 308 8.1 102580 86
2007-03-12 08:46:48 51°11.091 2°42.039 6.3 254 8.1 102590 87
2007-03-12 08:46:53 51°11.091 2°42.037 5.3 303 8.1 102590 87
2007-03-12 08:46:58 51°11.092 2°42.035 5.4 254 8.2 102590 87
2007-03-12 08:47:03 51°11.092 2°42.033 6.3 310 8.2 102590 87
2007-03-12 08:47:08 51°11.092 2°42.031 7.2 255 8.2 102590 87
2007-03-12 08:47:13 51°11.093 2°42.029 5.7 311 8.2 102590 87
2007-03-12 08:47:18 51°11.093 2°42.027 6.5 260 8.2 102590 87
2007-03-12 08:47:23 51°11.093 2°42.025 5.6 308 8.2 102590 87
2007-03-12 08:47:28 51°11.094 2°42.023 6.8 257 8.2 102590 86
2007-03-12 08:47:33 51°11.094 2°42.021 7 307 8.2 102590 86
2007-03-12 08:47:38 51°11.094 2°42.019 6.6 256 8.2 102580 86
2007-03-12 08:47:43 51°11.094 2°42.017 5.2 303 8.2 102580 86
2007-03-12 08:47:48 51°11.095 2°42.015 5.5 257 8.2 102590 86
2007-03-12 08:47:53 51°11.095 2°42.013 5.3 306 8.2 102590 86
2007-03-12 08:47:58 51°11.096 2°42.012 6.3 258 8.2 102590 86
2007-03-12 08:48:03 51°11.096 2°42.01 6.3 304 8.2 102590 86
2007-03-12 08:48:08 51°11.096 2°42.008 6.6 259 8.2 102590 86
2007-03-12 08:48:14 51°11.097 2°42.006 6.2 308 8.2 102590 86
2007-03-12 08:48:18 51°11.097 2°42.004 6.6 256 8.2 102590 86
2007-03-12 08:48:23 51°11.097 2°42.002 5.1 283 8.2 102590 86
2007-03-12 08:48:28 51°11.098 2°42 5.3 255 8.2 102590 86
2007-03-12 08:48:34 51°11.098 2°41.998 5.3 303 8.2 102590 86
2007-03-12 08:48:38 51°11.099 2°41.997 5.1 257 8.2 102590 85
2007-03-12 08:48:43 51°11.099 2°41.995 5.5 303 8.2 102590 85
2007-03-12 08:48:48 51°11.1 2°41.993 5.6 255 8.2 102580 85
2007-03-12 08:48:53 51°11.1 2°41.991 4.9 305 8.2 102580 85
2007-03-12 08:48:58 51°11.1 2°41.99 5.1 257 8.2 102590 85
2007-03-12 08:49:03 51°11.1 2°41.988 5.7 303 8.2 102590 85
2007-03-12 08:49:08 51°11.101 2°41.986 6.1 255 8.2 102590 85
2007-03-12 08:49:13 51°11.101 2°41.985 6.3 305 8.2 102590 85
2007-03-12 08:49:18 51°11.102 2°41.983 5.1 255 8.2 102590 85
2007-03-12 08:49:23 51°11.102 2°41.981 6.4 305 8.2 102590 85
2007-03-12 08:49:28 51°11.103 2°41.979 6.7 255 8.2 102590 85
2007-03-12 08:49:33 51°11.103 2°41.978 6.3 303 8.2 102590 85
2007-03-12 08:49:38 51°11.103 2°41.976 6 252 8.2 102590 85
2007-03-12 08:49:43 51°11.104 2°41.975 5.1 303 8.2 102590 85
2007-03-12 08:49:48 51°11.104 2°41.973 6.4 254 8.2 102590 85
2007-03-12 08:49:54 51°11.105 2°41.971 6.4 303 8.2 102590 85
2007-03-12 08:49:58 51°11.105 2°41.97 6.2 255 8.2 102590 85
2007-03-12 08:50:03 51°11.105 2°41.968 5.1 309 8.2 102590 85
2007-03-12 08:50:08 51°11.106 2°41.966 6.6 255 8.2 102590 85
2007-03-12 08:50:14 51°11.106 2°41.964 5 306 8.2 102590 85
2007-03-12 08:50:18 51°11.107 2°41.963 6.2 254 8.2 102590 85
2007-03-12 08:50:23 51°11.107 2°41.962 6.1 286 8.2 102590 85
2007-03-12 08:50:28 51°11.108 2°41.96 4.6 253 8.2 102590 85
2007-03-12 08:50:34 51°11.108 2°41.958 6.4 308 8.2 102590 85
2007-03-12 08:50:38 51°11.108 2°41.957 6.5 256 8.3 102590 85
2007-03-12 08:50:43 51°11.109 2°41.955 5.5 308 8.3 102590 85
2007-03-12 08:50:48 51°11.109 2°41.954 6.2 255 8.3 102580 85
2007-03-12 08:50:54 51°11.109 2°41.952 6.6 307 8.3 102580 85
2007-03-12 08:50:58 51°11.11 2°41.951 6.3 254 8.3 102590 84
2007-03-12 08:51:03 51°11.11 2°41.95 5.3 305 8.3 102590 84
2007-03-12 08:51:08 51°11.111 2°41.948 5 254 8.3 102590 84
2007-03-12 08:51:13 51°11.111 2°41.947 6.2 309 8.3 102590 84
2007-03-12 08:51:18 51°11.111 2°41.945 5.2 252 8.3 102590 84
2007-03-12 08:51:23 51°11.112 2°41.944 6.1 305 8.3 102590 84
2007-03-12 08:51:28 51°11.112 2°41.942 4.9 254 8.3 102590 84
2007-03-12 08:51:33 51°11.113 2°41.941 6.2 302 8.3 102590 84
2007-03-12 08:51:38 51°11.113 2°41.94 5.1 252 8.2 102590 84
2007-03-12 08:51:43 51°11.114 2°41.938 5.2 303 8.2 102590 84
2007-03-12 08:51:48 51°11.114 2°41.937 6 254 8.3 102590 84
2007-03-12 08:51:53 51°11.114 2°41.935 6.2 309 8.3 102590 84
2007-03-12 08:51:58 51°11.115 2°41.934 6.2 254 8.3 102590 84
2007-03-12 08:52:03 51°11.115 2°41.933 6.2 308 8.3 102590 84
2007-03-12 08:52:08 51°11.115 2°41.931 5.2 254 8.3 102590 84
2007-03-12 08:52:13 51°11.116 2°41.93 6 303 8.3 102590 84
2007-03-12 08:52:18 51°11.116 2°41.928 6.1 254 8.3 102590 84
2007-03-12 08:52:23 51°11.117 2°41.927 4.9 284 8.3 102590 84
2007-03-12 08:52:28 51°11.117 2°41.926 6.3 255 8.3 102590 84
2007-03-12 08:52:34 51°11.118 2°41.924 5.3 307 8.3 102590 84
2007-03-12 08:52:38 51°11.118 2°41.923 5.9 255 8.3 102590 84
2007-03-12 08:52:43 51°11.118 2°41.922 6.3 305 8.3 102590 84
2007-03-12 08:52:48 51°11.119 2°41.92 5.8 254 8.3 102590 84
2007-03-12 08:52:53 51°11.119 2°41.919 5.7 304 8.3 102590 84
2007-03-12 08:52:58 51°11.12 2°41.918 5.6 253 8.3 102590 84
2007-03-12 08:53:03 51°11.12 2°41.916 6 303 8.3 102590 84
2007-03-12 08:53:08 51°11.121 2°41.915 5 252 8.3 102590 84
2007-03-12 08:53:13 51°11.121 2°41.914 5.6 304 8.3 102590 84
2007-03-12 08:53:18 51°11.122 2°41.913 4.9 251 8.3 102590 84
2007-03-12 08:53:23 51°11.122 2°41.911 4.7 281 8.3 102590 84
2007-03-12 08:53:28 51°11.123 2°41.91 5.5 252 8.3 102590 84
2007-03-12 08:53:33 51°11.123 2°41.909 5.4 305 8.3 102590 84
2007-03-12 08:53:38 51°11.124 2°41.907 5.2 254 8.3 102590 83
2007-03-12 08:53:43 51°11.124 2°41.906 5.4 302 8.3 102590 83
2007-03-12 08:53:48 51°11.124 2°41.905 5.7 252 8.3 102590 83
2007-03-12 08:53:53 51°11.125 2°41.904 4 307 8.3 102590 83
2007-03-12 08:53:58 51°11.125 2°41.903 4.7 252 8.3 102590 83
2007-03-12 08:54:03 51°11.126 2°41.901 5.8 305 8.3 102590 83
2007-03-12 08:54:08 51°11.126 2°41.9 4.6 251 8.3 102590 83
2007-03-12 08:54:13 51°11.127 2°41.898 4.3 306 8.3 102590 83
2007-03-12 08:54:18 51°11.127 2°41.895 4.8 25 8.4 102590 83
2007-03-12 08:54:23 51°11.127 2°41.892 5.4 303 8.4 102590 83
2007-03-12 08:54:28 51°11.127 2°41.888 5.6 246 8.4 102590 83
2007-03-12 08:54:33 51°11.127 2°41.883 5.7 302 8.4 102590 83
2007-03-12 08:54:38 51°11.126 2°41.877 5.7 25 8.4 102580 83
2007-03-12 08:54:43 51°11.125 2°41.87 4.8 301 8.4 102580 83
2007-03-12 08:54:48 51°11.124 2°41.863 4.8 27 8.4 102580 83
2007-03-12 08:54:54 51°11.122 2°41.852 5.3 309 8.4 102580 83
2007-03-12 08:54:58 51°11.12 2°41.844 6.7 20 8.4 102590 84
2007-03-12 08:55:03 51°11.118 2°41.834 6.8 309 8.4 102590 84
2007-03-12 08:55:08 51°11.115 2°41.821 6.2 26 8.4 102580 84
2007-03-12 08:55:14 51°11.111 2°41.805 6.8 304 8.4 102580 84
2007-03-12 08:55:18 51°11.108 2°41.793 7.8 25 8.4 102580 84
2007-03-12 08:55:23 51°11.104 2°41.778 8 279 8.4 102580 84
2007-03-12 08:55:28 51°11.1 2°41.761 7.3 20 8.4 102580 83
2007-03-12 08:55:33 51°11.095 2°41.743 7.7 309 8.4 102580 83
2007-03-12 08:55:38 51°11.089 2°41.724 8.1 24 8.4 102580 83
2007-03-12 08:55:43 51°11.084 2°41.704 8.4 302 8.4 102580 83
2007-03-12 08:55:48 51°11.078 2°41.683 9 316 8.4 102570 83
2007-03-12 08:55:53 51°11.072 2°41.662 9 301 8.4 102570 83
2007-03-12 08:55:59 51°11.064 2°41.635 9.2 29 8.5 102570 83
2007-03-12 08:56:03 51°11.059 2°41.617 8.4 303 8.5 102570 83
2007-03-12 08:56:08 51°11.052 2°41.593 9.3 316 8.4 102560 83
2007-03-12 08:56:13 51°11.045 2°41.569 9.3 304 8.4 102560 83
2007-03-12 08:56:18 51°11.038 2°41.545 9.7 315 8.4 102560 83
2007-03-12 08:56:23 51°11.031 2°41.519 9.7 308 8.4 102560 83
2007-03-12 08:56:28 51°11.023 2°41.493 9.8 317 8.4 102560 82
2007-03-12 08:56:34 51°11.014 2°41.462 10.5 287 8.4 102560 82
2007-03-12 08:56:38 51°11.008 2°41.441 10.5 316 8.4 102560 82
2007-03-12 08:56:43 51°11 2°41.414 10.4 285 8.4 102560 82
2007-03-12 08:56:48 51°10.992 2°41.386 10 319 8.4 102550 82
2007-03-12 08:56:54 51°10.983 2°41.354 10.3 284 8.4 102550 82
2007-03-12 08:56:58 51°10.976 2°41.332 10.2 317 8.4 102550 82
2007-03-12 08:57:03 51°10.969 2°41.304 10.2 279 8.4 102550 82
2007-03-12 08:57:08 51°10.961 2°41.277 10.2 318 8.4 102550 82
2007-03-12 08:57:14 51°10.953 2°41.243 10.4 311 8.4 102550 82
2007-03-12 08:57:18 51°10.947 2°41.221 10.1 315 8.4 102550 82
2007-03-12 08:57:23 51°10.94 2°41.192 10 281 8.4 102550 82
2007-03-12 08:57:28 51°10.934 2°41.163 9.9 316 8.4 102550 82
2007-03-12 08:57:33 51°10.928 2°41.135 10.1 308 8.4 102550 82
2007-03-12 08:57:38 51°10.922 2°41.106 10.1 19 8.4 102550 82
2007-03-12 08:57:43 51°10.917 2°41.077 9.5 305 8.4 102550 82
2007-03-12 08:57:48 51°10.912 2°41.047 10.1 19 8.4 102550 82
2007-03-12 08:57:54 51°10.905 2°41.012 9.7 282 8.4 102550 82
2007-03-12 08:57:58 51°10.902 2°40.989 10 24 8.4 102550 82
2007-03-12 08:58:03 51°10.897 2°40.959 10 305 8.4 102550 82
2007-03-12 08:58:08 51°10.892 2°40.93 9.7 24 8.4 102550 82
2007-03-12 08:58:13 51°10.887 2°40.9 9.5 305 8.4 102550 82
2007-03-12 08:58:18 51°10.883 2°40.871 9.7 22 8.3 102560 82
2007-03-12 08:58:23 51°10.878 2°40.841 9.5 305 8.3 102560 82
2007-03-12 08:58:28 51°10.873 2°40.812 9.6 25 8.3 102560 82
2007-03-12 08:58:33 51°10.868 2°40.782 9 305 8.3 102560 82
2007-03-12 08:58:38 51°10.863 2°40.753 9.9 26 8.3 102560 82
2007-03-12 08:58:43 51°10.858 2°40.723 9.8 308 8.3 102560 82
2007-03-12 08:58:48 51°10.854 2°40.694 9.5 21 8.3 102560 82
2007-03-12 08:58:53 51°10.849 2°40.664 9.2 306 8.3 102560 82
2007-03-12 08:58:58 51°10.844 2°40.635 9.2 22 8.3 102550 83
2007-03-12 08:59:03 51°10.839 2°40.605 8.8 304 8.3 102550 83
2007-03-12 08:59:08 51°10.834 2°40.576 9.1 27 8.3 102560 82
2007-03-12 08:59:13 51°10.829 2°40.547 9.2 302 8.3 102560 82
2007-03-12 08:59:18 51°10.824 2°40.517 8.9 316 8.3 102560 82
2007-03-12 08:59:23 51°10.819 2°40.488 8.9 279 8.3 102560 82
2007-03-12 08:59:28 51°10.815 2°40.458 8.7 23 8.3 102560 83
2007-03-12 08:59:34 51°10.809 2°40.422 8.8 309 8.3 102560 83
2007-03-12 08:59:38 51°10.805 2°40.399 9.2 316 8.3 102560 83
2007-03-12 08:59:43 51°10.8 2°40.369 9.4 302 8.3 102560 83
2007-03-12 08:59:48 51°10.795 2°40.34 9.1 318 8.3 102560 83
2007-03-12 08:59:54 51°10.789 2°40.304 9.2 308 8.3 102560 83
2007-03-12 08:59:58 51°10.785 2°40.281 8.7 317 8.3 102560 83
2007-03-12 09:00:03 51°10.781 2°40.251 9 305 8.3 102560 83
2007-03-12 09:00:08 51°10.776 2°40.222 9 317 8.3 102560 83
2007-03-12 09:00:13 51°10.771 2°40.192 9.5 310 8.3 102560 83
2007-03-12 09:00:18 51°10.766 2°40.163 8.8 317 8.3 102560 83
2007-03-12 09:00:23 51°10.761 2°40.133 8.8 304 8.3 102560 83
2007-03-12 09:00:28 51°10.757 2°40.104 9.1 316 8.3 102560 83
2007-03-12 09:00:33 51°10.752 2°40.074 9.4 301 8.3 102560 83
2007-03-12 09:00:38 51°10.747 2°40.045 9 315 8.4 102560 84
2007-03-12 09:00:43 51°10.743 2°40.015 8.7 305 8.4 102560 84
2007-03-12 09:00:48 51°10.738 2°39.985 9.1 316 8.4 102560 84
2007-03-12 09:00:54 51°10.732 2°39.95 9 280 8.4 102560 84
2007-03-12 09:00:58 51°10.729 2°39.926 9.6 317 8.4 102560 84
2007-03-12 09:01:03 51°10.724 2°39.897 9.8 305 8.4 102560 84
2007-03-12 09:01:08 51°10.719 2°39.867 9.3 315 8.4 102560 84
2007-03-12 09:01:14 51°10.713 2°39.832 9.5 305 8.4 102560 84
2007-03-12 09:01:18 51°10.709 2°39.808 9.8 318 8.4 102560 84
2007-03-12 09:01:23 51°10.705 2°39.779 9.7 280 8.4 102560 84
2007-03-12 09:01:28 51°10.7 2°39.749 9.5 320 8.4 102560 84
2007-03-12 09:01:34 51°10.694 2°39.714 9.5 309 8.4 102560 84
2007-03-12 09:01:38 51°10.691 2°39.69 9 317 8.5 102550 84
2007-03-12 09:01:43 51°10.686 2°39.66 9.6 304 8.5 102550 84
2007-03-12 09:01:48 51°10.681 2°39.631 9.3 316 8.4 102560 84
2007-03-12 09:01:54 51°10.676 2°39.596 9.4 304 8.4 102560 84
2007-03-12 09:01:58 51°10.672 2°39.572 9.9 316 8.5 102560 84
2007-03-12 09:02:03 51°10.667 2°39.542 10.3 304 8.5 102560 84
2007-03-12 09:02:08 51°10.662 2°39.513 9.9 316 8.5 102560 84
2007-03-12 09:02:13 51°10.658 2°39.483 8.9 284 8.5 102560 84
2007-03-12 09:02:18 51°10.653 2°39.454 9.2 318 8.5 102560 84
2007-03-12 09:02:23 51°10.648 2°39.425 9.9 308 8.5 102560 84
2007-03-12 09:02:28 51°10.643 2°39.395 9.6 317 8.5 102560 83
2007-03-12 09:02:34 51°10.638 2°39.36 9.8 282 8.5 102560 83
2007-03-12 09:02:38 51°10.634 2°39.336 9.2 317 8.5 102560 83
2007-03-12 09:02:43 51°10.629 2°39.306 9.2 305 8.5 102560 83
2007-03-12 09:02:48 51°10.625 2°39.277 9.2 316 8.5 102560 83
2007-03-12 09:02:53 51°10.62 2°39.247 10.2 308 8.5 102560 83
2007-03-12 09:02:58 51°10.615 2°39.218 10.5 315 8.5 102560 83
2007-03-12 09:03:03 51°10.611 2°39.188 9.9 304 8.5 102560 83
2007-03-12 09:03:08 51°10.606 2°39.159 10.4 317 8.6 102560 83
2007-03-12 09:03:13 51°10.601 2°39.129 10.4 306 8.6 102560 83
2007-03-12 09:03:18 51°10.596 2°39.099 10.5 317 8.6 102560 83
2007-03-12 09:03:23 51°10.591 2°39.07 10.4 280 8.6 102560 83
2007-03-12 09:03:28 51°10.587 2°39.04 10.8 317 8.6 102560 83
2007-03-12 09:03:33 51°10.582 2°39.011 10.2 310 8.6 102560 83
2007-03-12 09:03:38 51°10.577 2°38.981 10.2 317 8.6 102560 83
2007-03-12 09:03:43 51°10.572 2°38.951 9.6 278 8.6 102560 83
2007-03-12 09:03:48 51°10.567 2°38.922 9.6 316 8.6 102560 82
2007-03-12 09:03:54 51°10.562 2°38.886 10.3 305 8.6 102560 82
2007-03-12 09:03:58 51°10.558 2°38.863 10 316 8.6 102560 82
2007-03-12 09:04:03 51°10.554 2°38.833 10.3 287 8.6 102560 82
2007-03-12 09:04:08 51°10.55 2°38.803 9.5 316 8.6 102560 82
2007-03-12 09:04:14 51°10.545 2°38.767 9.7 310 8.6 102560 82
2007-03-12 09:04:18 51°10.542 2°38.743 9.1 319 8.6 102560 82
2007-03-12 09:04:23 51°10.538 2°38.714 8.9 305 8.6 102560 82
2007-03-12 09:04:28 51°10.534 2°38.684 9.5 316 8.6 102560 82
2007-03-12 09:04:33 51°10.53 2°38.654 9.8 280 8.6 102560 82
2007-03-12 09:04:38 51°10.527 2°38.624 10 317 8.7 102560 82
2007-03-12 09:04:43 51°10.523 2°38.594 9.8 308 8.7 102560 82
2007-03-12 09:04:48 51°10.52 2°38.564 10 317 8.7 102560 82
2007-03-12 09:04:54 51°10.516 2°38.528 9.9 281 8.7 102560 82
2007-03-12 09:04:58 51°10.513 2°38.504 9.6 317 8.7 102560 82
2007-03-12 09:05:03 51°10.51 2°38.473 9.8 310 8.7 102560 82
2007-03-12 09:05:08 51°10.506 2°38.443 9.9 318 8.7 102560 82
2007-03-12 09:05:13 51°10.503 2°38.413 9.8 304 8.7 102560 82
2007-03-12 09:05:18 51°10.5 2°38.383 9.2 317 8.7 102550 81
2007-03-12 09:05:23 51°10.496 2°38.353 10 280 8.7 102550 81
2007-03-12 09:05:28 51°10.493 2°38.323 9.4 317 8.7 102560 81
2007-03-12 09:05:33 51°10.489 2°38.293 9 304 8.7 102560 81
2007-03-12 09:05:38 51°10.486 2°38.262 9 317 8.7 102560 81
2007-03-12 09:05:43 51°10.483 2°38.232 9.3 303 8.7 102560 81
2007-03-12 09:05:48 51°10.479 2°38.202 9.6 317 8.7 102560 81
2007-03-12 09:05:53 51°10.476 2°38.172 10.4 308 8.7 102560 81
2007-03-12 09:05:58 51°10.473 2°38.142 10.4 317 8.7 102560 81
2007-03-12 09:06:03 51°10.469 2°38.112 9.8 305 8.7 102560 81
2007-03-12 09:06:08 51°10.466 2°38.081 10.2 317 8.7 102560 81
2007-03-12 09:06:13 51°10.462 2°38.051 10.3 305 8.7 102560 81
2007-03-12 09:06:18 51°10.459 2°38.021 10.5 315 8.7 102560 81
2007-03-12 09:06:23 51°10.455 2°37.991 10 302 8.7 102560 81
2007-03-12 09:06:28 51°10.452 2°37.96 10.2 316 8.7 102560 81
2007-03-12 09:06:34 51°10.447 2°37.924 9.6 309 8.7 102560 81
2007-03-12 09:06:38 51°10.444 2°37.9 9.9 317 8.7 102550 81
2007-03-12 09:06:43 51°10.441 2°37.869 10 309 8.7 102550 81
2007-03-12 09:06:48 51°10.437 2°37.839 9.1 319 8.7 102550 81
2007-03-12 09:06:53 51°10.434 2°37.809 9.5 304 8.7 102550 81
2007-03-12 09:06:58 51°10.43 2°37.779 9.7 317 8.7 102560 81
2007-03-12 09:07:03 51°10.426 2°37.749 9.8 303 8.7 102560 81
2007-03-12 09:07:08 51°10.423 2°37.718 9.8 316 8.7 102560 81
2007-03-12 09:07:13 51°10.42 2°37.688 10.1 304 8.7 102560 81
2007-03-12 09:07:18 51°10.417 2°37.658 9.9 26 8.7 102560 81
2007-03-12 09:07:23 51°10.414 2°37.627 10.2 280 8.7 102560 81
2007-03-12 09:07:28 51°10.411 2°37.597 10.3 316 8.7 102560 81
2007-03-12 09:07:33 51°10.408 2°37.567 9.7 301 8.7 102560 81
2007-03-12 09:07:38 51°10.406 2°37.536 9.8 316 8.7 102560 81
2007-03-12 09:07:43 51°10.403 2°37.506 9.5 305 8.7 102560 81
2007-03-12 09:07:48 51°10.402 2°37.475 9.9 23 8.7 102550 81
2007-03-12 09:07:54 51°10.4 2°37.439 9.5 281 8.7 102550 81
2007-03-12 09:07:58 51°10.399 2°37.414 9.6 23 8.7 102560 81
2007-03-12 09:08:03 51°10.398 2°37.383 9.3 284 8.7 102560 81
2007-03-12 09:08:08 51°10.397 2°37.353 8.9 315 8.7 102560 81
2007-03-12 09:08:14 51°10.396 2°37.316 9.5 308 8.7 102560 81
2007-03-12 09:08:18 51°10.395 2°37.291 9.2 21 8.7 102560 81
2007-03-12 09:08:23 51°10.395 2°37.261 9 308 8.7 102560 81
2007-03-12 09:08:28 51°10.394 2°37.23 9.3 23 8.7 102560 81
2007-03-12 09:08:34 51°10.393 2°37.193 9 310 8.7 102560 81
2007-03-12 09:08:38 51°10.393 2°37.169 9.2 24 8.7 102560 81
2007-03-12 09:08:43 51°10.392 2°37.138 9.3 311 8.7 102560 81
2007-03-12 09:08:48 51°10.392 2°37.108 8.7 21 8.7 102560 81
2007-03-12 09:08:53 51°10.393 2°37.077 8.8 280 8.7 102560 81
2007-03-12 09:08:58 51°10.395 2°37.047 8.5 23 8.7 102560 81
2007-03-12 09:09:03 51°10.398 2°37.017 7.8 309 8.7 102560 81
2007-03-12 09:09:08 51°10.402 2°36.987 7.5 20 8.7 102560 81
2007-03-12 09:09:13 51°10.408 2°36.958 8.4 282 8.7 102560 81
2007-03-12 09:09:18 51°10.415 2°36.93 6.8 22 8.7 102570 81
2007-03-12 09:09:23 51°10.423 2°36.903 7.5 281 8.7 102570 81
2007-03-12 09:09:28 51°10.432 2°36.876 7.1 26 8.7 102570 81
2007-03-12 09:09:34 51°10.444 2°36.846 6.8 281 8.7 102570 81
2007-03-12 09:09:38 51°10.452 2°36.826 6.3 25 8.7 102570 81
2007-03-12 09:09:43 51°10.463 2°36.802 6.7 303 8.7 102570 81
2007-03-12 09:09:48 51°10.474 2°36.778 6.5 27 8.7 102580 81
2007-03-12 09:09:54 51°10.488 2°36.751 6.8 304 8.7 102580 81
2007-03-12 09:09:58 51°10.497 2°36.732 5.3 22 8.7 102570 81
2007-03-12 09:10:03 51°10.509 2°36.71 4.8 309 8.7 102570 81
2007-03-12 09:10:08 51°10.521 2°36.688 5.6 24 8.7 102580 81
2007-03-12 09:10:14 51°10.538 2°36.666 4.7 310 8.7 102580 81
2007-03-12 09:10:18 51°10.549 2°36.651 4.7 24 8.7 102580 81